createdAt,value
2023-04-18T00:00:22.518Z,7.35
2023-04-18T00:02:51.539Z,7.05
2023-04-18T00:05:20.948Z,6.32
2023-04-18T00:07:49.024Z,6.97
2023-04-18T00:10:17.971Z,6.85
2023-04-18T00:12:46.034Z,6.53
2023-04-18T00:15:13.771Z,7.22
2023-04-18T00:17:41.551Z,6.85
2023-04-18T00:20:11.045Z,7.38
2023-04-18T00:22:42.724Z,6.45
2023-04-18T00:25:11.770Z,6.95
2023-04-18T00:27:40.410Z,6.50
2023-04-18T00:30:09.922Z,7.03
2023-04-18T00:32:37.751Z,6.68
2023-04-18T00:35:06.595Z,6.75
2023-04-18T00:37:34.330Z,7.25
2023-04-18T00:40:05.559Z,6.93
2023-04-18T00:42:33.949Z,7.07
2023-04-18T00:45:01.938Z,6.63
2023-04-18T00:47:29.768Z,6.85
2023-04-18T00:49:57.847Z,6.65
2023-04-18T00:52:27.618Z,6.93
2023-04-18T00:54:55.714Z,7.00
2023-04-18T00:57:25.611Z,6.50
2023-04-18T00:59:53.484Z,6.07
2023-04-18T01:02:22.184Z,5.90
2023-04-18T01:04:50.089Z,6.20
2023-04-18T01:07:17.929Z,6.07
2023-04-18T01:09:45.986Z,5.72
2023-04-18T01:12:13.704Z,6.07
2023-04-18T01:14:44.007Z,5.57
2023-04-18T01:17:13.518Z,6.10
2023-04-18T01:19:41.380Z,7.05
2023-04-18T01:22:09.751Z,6.70
2023-04-18T01:24:39.234Z,5.90
2023-04-18T01:27:07.020Z,6.70
2023-04-18T01:29:35.045Z,6.68
2023-04-18T01:32:03.608Z,6.18
2023-04-18T01:34:31.321Z,6.78
2023-04-18T01:36:59.216Z,7.32
2023-04-18T01:39:26.950Z,7.07
2023-04-18T01:41:56.069Z,6.15
2023-04-18T01:44:23.846Z,7.13
2023-04-18T01:46:51.670Z,6.20
2023-04-18T01:49:19.527Z,6.93
2023-04-18T01:51:47.216Z,6.93
2023-04-18T01:54:15.318Z,7.45
2023-04-18T01:56:43.229Z,6.95
2023-04-18T01:59:12.539Z,7.03
2023-04-18T02:01:40.281Z,6.57
2023-04-18T02:04:08.082Z,6.30
2023-04-18T02:06:35.999Z,6.90
2023-04-18T02:09:03.754Z,6.70
2023-04-18T02:11:31.450Z,7.25
2023-04-18T02:13:59.611Z,6.63
2023-04-18T02:16:28.789Z,6.85
2023-04-18T02:18:56.540Z,6.45
2023-04-18T02:21:24.345Z,6.53
2023-04-18T02:23:52.147Z,7.30
2023-04-18T02:26:19.889Z,7.05
2023-04-18T02:28:47.661Z,6.82
2023-04-18T02:31:15.898Z,7.32
2023-04-18T02:33:47.276Z,6.55
2023-04-18T02:36:14.958Z,6.25
2023-04-18T02:38:42.713Z,7.03
2023-04-18T02:41:15.010Z,6.45
2023-04-18T02:43:43.104Z,6.57
2023-04-18T02:46:10.895Z,6.97
2023-04-18T02:48:38.606Z,6.50
2023-04-18T02:51:08.922Z,6.45
2023-04-18T02:53:36.864Z,6.60
2023-04-18T02:56:04.621Z,6.03
2023-04-18T02:58:34.716Z,6.40
2023-04-18T03:01:02.484Z,6.53
2023-04-18T03:03:30.230Z,7.35
2023-04-18T03:05:57.960Z,6.05
2023-04-18T03:08:27.228Z,6.30
2023-04-18T03:10:56.395Z,5.78
2023-04-18T03:13:24.176Z,5.93
2023-04-18T03:15:52.081Z,6.28
2023-04-18T03:18:19.818Z,5.55
2023-04-18T03:20:47.524Z,6.20
2023-04-18T03:23:15.238Z,6.68
2023-04-18T03:25:44.404Z,6.13
2023-04-18T03:28:12.121Z,5.88
2023-04-18T03:30:39.879Z,6.70
2023-04-18T03:33:07.866Z,6.72
2023-04-18T03:35:35.655Z,7.18
2023-04-18T03:38:03.392Z,6.25
2023-04-18T03:40:31.147Z,6.53
2023-04-18T03:43:00.792Z,7.15
2023-04-18T03:45:28.716Z,6.63
2023-04-18T03:47:56.510Z,5.90
2023-04-18T03:50:25.700Z,6.53
2023-04-18T03:52:53.508Z,6.88
2023-04-18T03:55:21.820Z,6.40
2023-04-18T03:57:49.520Z,6.50
2023-04-18T04:00:19.235Z,6.25
2023-04-18T04:02:47.121Z,6.40
2023-04-18T04:05:14.920Z,6.22
2023-04-18T04:07:42.811Z,5.47
2023-04-18T04:10:11.037Z,6.30
2023-04-18T04:12:38.732Z,5.93
2023-04-18T04:15:07.718Z,6.55
2023-04-18T04:17:36.857Z,6.53
2023-04-18T04:20:05.625Z,6.20
2023-04-18T04:22:34.444Z,6.60
2023-04-18T04:25:02.633Z,6.25
2023-04-18T04:27:30.309Z,6.88
2023-04-18T04:29:58.020Z,6.82
2023-04-18T04:32:27.567Z,6.35
2023-04-18T04:34:56.816Z,6.43
2023-04-18T04:37:24.581Z,6.53
2023-04-18T04:39:52.275Z,5.88
2023-04-18T04:42:20.143Z,5.85
2023-04-18T04:44:47.957Z,5.90
2023-04-18T04:47:15.722Z,6.07
2023-04-18T04:49:43.418Z,6.00
2023-04-18T04:52:12.521Z,6.07
2023-04-18T04:54:40.215Z,6.10
2023-04-18T04:57:07.931Z,5.20
2023-04-18T04:59:35.632Z,6.13
2023-04-18T05:02:03.573Z,6.43
2023-04-18T05:04:31.494Z,5.80
2023-04-18T05:06:59.285Z,6.03
2023-04-18T05:09:28.400Z,5.68
2023-04-18T05:11:56.257Z,6.40
2023-04-18T05:14:24.187Z,5.93
2023-04-18T05:16:51.987Z,5.75
2023-04-18T05:19:19.805Z,5.75
2023-04-18T05:21:47.546Z,6.78
2023-04-18T05:24:15.460Z,6.07
2023-04-18T05:26:44.731Z,5.53
2023-04-18T05:29:12.456Z,6.25
2023-04-18T05:31:40.281Z,5.53
2023-04-18T05:34:08.044Z,6.22
2023-04-18T05:36:35.894Z,5.93
2023-04-18T05:39:04.201Z,6.65
2023-04-18T05:41:31.968Z,5.85
2023-04-18T05:44:05.342Z,6.00
2023-04-18T05:46:33.905Z,6.32
2023-04-18T05:49:01.961Z,5.45
2023-04-18T05:51:29.688Z,5.80
2023-04-18T05:53:57.449Z,6.13
2023-04-18T05:56:25.231Z,5.90
2023-04-18T05:58:52.913Z,6.28
2023-04-18T06:01:22.413Z,6.35
2023-04-18T06:03:50.412Z,6.28
2023-04-18T06:06:18.401Z,6.63
2023-04-18T06:08:46.283Z,6.68
2023-04-18T06:11:15.269Z,6.90
2023-04-18T06:13:44.398Z,7.40
2023-04-18T06:16:12.325Z,6.30
2023-04-18T06:18:41.440Z,6.13
2023-04-18T06:21:09.535Z,6.00
2023-04-18T06:23:38.584Z,6.40
2023-04-18T06:26:07.382Z,5.82
2023-04-18T06:28:35.099Z,6.05
2023-04-18T06:31:03.006Z,6.07
2023-04-18T06:33:31.003Z,7.35
2023-04-18T06:36:00.135Z,5.82
2023-04-18T06:38:27.968Z,9.32
2023-04-18T06:40:55.716Z,6.32
2023-04-18T06:43:23.408Z,6.60
2023-04-18T06:45:51.290Z,6.35
2023-04-18T06:48:18.996Z,6.15
2023-04-18T06:50:46.735Z,6.03
2023-04-18T06:53:15.882Z,5.97
2023-04-18T06:55:43.708Z,5.55
2023-04-18T06:58:13.671Z,5.60
2023-04-18T07:00:41.436Z,5.90
2023-04-18T07:03:13.472Z,5.40
2023-04-18T07:05:41.651Z,6.20
2023-04-18T07:08:09.377Z,5.50
2023-04-18T07:10:38.440Z,5.35
2023-04-18T07:13:06.171Z,5.35
2023-04-18T07:15:35.559Z,5.25
2023-04-18T07:18:03.412Z,5.10
2023-04-18T07:20:31.242Z,4.90
2023-04-18T07:22:59.015Z,5.15
2023-04-18T07:25:26.810Z,5.80
2023-04-18T07:27:55.911Z,5.53
2023-04-18T07:30:23.830Z,4.95
2023-04-18T07:32:51.623Z,6.95
2023-04-18T07:35:19.561Z,5.63
2023-04-18T07:37:47.559Z,5.88
2023-04-18T07:40:16.587Z,6.25
2023-04-18T07:42:44.303Z,6.15
2023-04-18T07:45:13.570Z,6.22
2023-04-18T07:47:41.379Z,5.60
2023-04-18T07:50:10.246Z,6.07
2023-04-18T07:52:39.385Z,5.38
2023-04-18T07:55:08.517Z,5.78
2023-04-18T07:57:36.287Z,5.20
2023-04-18T08:00:05.309Z,4.97
2023-04-18T08:02:34.578Z,4.72
2023-04-18T08:05:02.431Z,4.88
2023-04-18T08:07:30.509Z,5.50
2023-04-18T08:09:58.262Z,5.15
2023-04-18T08:12:26.157Z,5.90
2023-04-18T08:14:53.913Z,6.03
2023-04-18T08:17:21.699Z,5.32
2023-04-18T08:19:50.855Z,5.43
2023-04-18T08:22:18.581Z,5.22
2023-04-18T08:24:57.269Z,4.72
2023-04-18T08:27:31.752Z,4.93
2023-04-18T08:29:59.499Z,5.32
2023-04-18T08:32:27.404Z,5.30
2023-04-18T08:34:57.229Z,5.47
2023-04-18T08:37:25.063Z,4.75
2023-04-18T08:39:52.751Z,5.90
2023-04-18T08:42:21.565Z,5.97
2023-04-18T08:44:49.815Z,5.32
2023-04-18T08:47:17.585Z,5.63
2023-04-18T08:49:45.598Z,5.70
2023-04-18T08:52:17.057Z,5.20
2023-04-18T08:54:46.686Z,5.80
2023-04-18T08:57:17.469Z,4.15
2023-04-18T08:59:48.948Z,5.43
2023-04-18T09:02:19.254Z,5.85
2023-04-18T09:04:52.377Z,4.93
2023-04-18T09:07:28.385Z,5.65
2023-04-18T09:09:57.691Z,5.47
2023-04-18T09:12:26.588Z,5.10
2023-04-18T09:14:56.629Z,5.75
2023-04-18T09:17:35.724Z,6.18
2023-04-18T09:20:06.293Z,6.10
2023-04-18T09:22:50.375Z,6.10
2023-04-18T09:25:29.265Z,6.40
2023-04-18T09:28:00.986Z,6.18
2023-04-18T09:30:37.714Z,6.50
2023-04-18T09:33:07.519Z,6.28
2023-04-18T09:35:35.894Z,6.53
2023-04-18T09:38:05.936Z,6.32
2023-04-18T09:40:34.152Z,6.45
2023-04-18T09:43:02.029Z,5.78
2023-04-18T09:45:29.759Z,6.68
2023-04-18T09:47:57.536Z,6.50
2023-04-18T09:50:25.274Z,6.28
2023-04-18T09:52:53.511Z,6.72
2023-04-18T09:55:23.057Z,5.53
2023-04-18T09:57:53.243Z,5.28
2023-04-18T10:00:25.180Z,5.97
2023-04-18T10:02:58.129Z,6.38
2023-04-18T10:05:27.548Z,6.10
2023-04-18T10:07:56.154Z,5.40
2023-04-18T10:10:25.545Z,5.55
2023-04-18T10:12:55.249Z,5.25
2023-04-18T10:15:25.009Z,4.90
2023-04-18T10:18:04.438Z,5.65
2023-04-18T10:20:35.395Z,4.70
2023-04-18T10:23:37.296Z,4.30
2023-04-18T10:26:06.971Z,3.80
2023-04-18T10:28:56.852Z,4.05
2023-04-18T10:31:25.634Z,4.65
2023-04-18T10:36:28.243Z,4.72
2023-04-18T10:39:00.423Z,4.65
2023-04-18T10:41:30.720Z,4.80
2023-04-18T10:44:28.608Z,4.88
2023-04-18T10:50:01.009Z,4.70
2023-04-18T10:52:30.388Z,4.47
2023-04-18T10:55:17.489Z,4.88
2023-04-18T10:57:48.178Z,4.25
2023-04-18T11:00:17.896Z,4.95
2023-04-18T11:02:55.963Z,4.93
2023-04-18T11:05:26.704Z,5.38
2023-04-18T11:07:54.775Z,6.85
2023-04-18T11:10:23.807Z,5.95
2023-04-18T11:12:53.697Z,5.30
2023-04-18T11:15:23.135Z,4.75
2023-04-18T11:17:59.040Z,4.50
2023-04-18T11:20:26.905Z,5.03
2023-04-18T11:22:57.183Z,4.68
2023-04-18T11:25:26.969Z,4.57
2023-04-18T11:28:00.106Z,5.07
2023-04-18T11:30:28.335Z,5.47
2023-04-18T11:32:56.323Z,5.68
2023-04-18T11:35:24.328Z,5.47
2023-04-18T11:37:52.078Z,5.43
2023-04-18T11:40:19.860Z,5.95
2023-04-18T11:42:47.830Z,5.40
2023-04-18T11:45:16.959Z,5.25
2023-04-18T11:47:46.761Z,5.80
2023-04-18T11:50:15.125Z,6.00
2023-04-18T11:52:43.394Z,5.78
2023-04-18T11:55:17.887Z,6.00
2023-04-18T11:57:51.945Z,5.72
2023-04-18T12:00:32.455Z,6.15
2023-04-18T12:03:01.732Z,7.03
2023-04-18T12:05:31.444Z,9.27
2023-04-18T12:08:07.844Z,8.68
2023-04-18T12:10:36.347Z,8.48
2023-04-18T12:13:09.095Z,7.10
2023-04-18T12:15:41.712Z,6.80
2023-04-18T12:18:09.558Z,7.35
2023-04-18T12:20:38.827Z,7.60
2023-04-18T12:23:07.926Z,7.22
2023-04-18T12:25:36.445Z,8.32
2023-04-18T12:28:13.828Z,6.53
2023-04-18T12:30:43.692Z,6.88
2023-04-18T12:33:11.398Z,7.38
2023-04-18T12:35:39.121Z,7.28
2023-04-18T12:38:06.910Z,7.20
2023-04-18T12:40:34.571Z,6.93
2023-04-18T12:43:03.773Z,6.43
2023-04-18T12:45:32.142Z,6.32
2023-04-18T12:48:01.432Z,6.10
2023-04-18T12:50:29.357Z,6.68
2023-04-18T12:53:00.514Z,6.63
2023-04-18T12:55:28.908Z,6.75
2023-04-18T12:57:58.048Z,6.90
2023-04-18T13:00:27.267Z,7.28
2023-04-18T13:02:55.319Z,8.30
2023-04-18T13:05:29.230Z,7.18
2023-04-18T13:08:15.443Z,7.72
2023-04-18T13:10:44.546Z,7.20
2023-04-18T13:13:12.323Z,7.45
2023-04-18T13:15:40.078Z,7.47
2023-04-18T13:18:08.244Z,7.70
2023-04-18T13:20:37.575Z,7.30
2023-04-18T13:23:05.380Z,8.48
2023-04-18T13:25:33.128Z,7.90
2023-04-18T13:28:01.194Z,8.80
2023-04-18T13:30:29.238Z,8.07
2023-04-18T13:32:57.033Z,7.45
2023-04-18T13:35:24.878Z,7.45
2023-04-18T13:37:53.936Z,7.30
2023-04-18T13:40:21.889Z,7.07
2023-04-18T13:42:49.612Z,7.22
2023-04-18T13:45:17.261Z,7.65
2023-04-18T13:47:45.054Z,7.18
2023-04-18T13:50:12.901Z,8.05
2023-04-18T13:52:40.665Z,8.20
2023-04-18T13:55:12.421Z,8.93
2023-04-18T13:57:41.164Z,9.30
2023-04-18T14:00:13.073Z,9.35
2023-04-18T14:02:41.012Z,11.20
2023-04-18T14:05:09.884Z,8.38
2023-04-18T14:07:38.297Z,8.27
2023-04-18T14:10:07.002Z,8.07
2023-04-18T14:12:36.340Z,8.65
2023-04-18T14:15:04.486Z,8.73
2023-04-18T14:17:32.294Z,8.40
2023-04-18T14:20:00.047Z,8.75
2023-04-18T14:22:27.944Z,9.07
2023-04-18T14:24:56.176Z,9.25
2023-04-18T14:27:25.511Z,8.63
2023-04-18T14:29:54.624Z,9.45
2023-04-18T14:32:22.428Z,9.68
2023-04-18T14:34:50.402Z,9.30
2023-04-18T14:37:18.157Z,10.02
2023-04-18T14:39:46.126Z,9.80
2023-04-18T14:42:13.868Z,9.25
2023-04-18T14:44:41.988Z,9.73
2023-04-18T14:47:11.302Z,9.75
2023-04-18T14:49:39.121Z,10.55
2023-04-18T14:52:06.850Z,10.93
2023-04-18T14:54:34.552Z,11.25
2023-04-18T14:57:02.260Z,11.13
2023-04-18T14:59:30.217Z,9.82
2023-04-18T15:01:58.146Z,9.77
2023-04-18T15:04:27.476Z,11.18
2023-04-18T15:06:55.347Z,10.40
2023-04-18T15:09:23.175Z,9.15
2023-04-18T15:11:51.758Z,10.35
2023-04-18T15:14:19.788Z,10.35
2023-04-18T15:16:50.160Z,10.05
2023-04-18T15:19:17.971Z,9.23
2023-04-18T15:21:47.046Z,10.23
2023-04-18T15:24:15.178Z,9.00
2023-04-18T15:26:43.282Z,10.00
2023-04-18T15:29:11.482Z,8.45
2023-04-18T15:31:39.385Z,8.98
2023-04-18T15:34:07.918Z,9.40
2023-04-18T15:36:36.755Z,9.30
2023-04-18T15:39:06.771Z,9.48
2023-04-18T15:41:36.202Z,10.10
2023-04-18T15:44:05.561Z,9.68
2023-04-18T15:46:35.392Z,10.40
2023-04-18T15:49:03.195Z,10.55
2023-04-18T15:51:31.326Z,9.20
2023-04-18T15:53:59.054Z,10.40
2023-04-18T15:56:28.119Z,9.85
2023-04-18T15:58:57.467Z,9.90
2023-04-18T16:01:25.299Z,9.18
2023-04-18T16:03:53.143Z,10.10
2023-04-18T16:06:22.293Z,9.50
2023-04-18T16:08:50.003Z,10.30
2023-04-18T16:11:17.951Z,9.55
2023-04-18T16:13:47.016Z,9.75
2023-04-18T16:16:14.761Z,9.52
2023-04-18T16:18:42.549Z,10.20
2023-04-18T16:21:10.335Z,10.23
2023-04-18T16:23:38.032Z,11.02
2023-04-18T16:26:06.236Z,9.45
2023-04-18T16:28:37.626Z,9.80
2023-04-18T16:31:07.394Z,8.45
2023-04-18T16:33:35.192Z,9.00
2023-04-18T16:36:03.615Z,10.05
2023-04-18T16:38:31.412Z,10.15
2023-04-18T16:41:01.488Z,9.07
2023-04-18T16:43:30.924Z,10.10
2023-04-18T16:46:00.343Z,10.50
2023-04-18T16:48:30.129Z,9.82
2023-04-18T16:50:57.953Z,9.40
2023-04-18T16:53:25.801Z,8.95
2023-04-18T16:55:54.597Z,8.07
2023-04-18T16:58:23.454Z,8.02
2023-04-18T17:00:52.575Z,9.30
2023-04-18T17:03:20.405Z,9.52
2023-04-18T17:05:49.548Z,8.57
2023-04-18T17:08:17.894Z,8.48
2023-04-18T17:10:45.743Z,8.50
2023-04-18T17:13:13.536Z,8.60
2023-04-18T17:15:41.488Z,8.63
2023-04-18T17:18:09.245Z,8.07
2023-04-18T17:20:37.362Z,6.82
2023-04-18T17:23:06.537Z,7.47
2023-04-18T17:25:34.256Z,8.95
2023-04-18T17:28:02.193Z,7.38
2023-04-18T17:30:30.024Z,7.75
2023-04-18T17:32:57.813Z,8.30
2023-04-18T17:35:25.680Z,9.30
2023-04-18T17:37:53.406Z,7.53
2023-04-18T17:40:22.698Z,6.95
2023-04-18T17:42:50.439Z,8.25
2023-04-18T17:45:20.407Z,8.00
2023-04-18T17:47:49.542Z,9.32
2023-04-18T17:50:17.471Z,8.65
2023-04-18T17:52:46.398Z,8.80
2023-04-18T17:55:14.296Z,8.45
2023-04-18T17:57:43.361Z,8.63
2023-04-18T18:00:13.700Z,9.07
2023-04-18T18:02:42.315Z,8.45
2023-04-18T18:05:12.981Z,8.00
2023-04-18T18:07:43.009Z,8.88
2023-04-18T18:10:12.094Z,8.30
2023-04-18T18:12:40.660Z,8.02
2023-04-18T18:15:10.898Z,8.95
2023-04-18T18:17:38.904Z,8.00
2023-04-18T18:20:09.794Z,7.70
2023-04-18T18:22:37.722Z,7.55
2023-04-18T18:25:06.180Z,9.38
2023-04-18T18:27:33.921Z,8.07
2023-04-18T18:30:01.765Z,8.60
2023-04-18T18:32:30.973Z,9.00
2023-04-18T18:34:58.697Z,8.98
2023-04-18T18:37:26.705Z,8.80
2023-04-18T18:39:55.044Z,8.60
2023-04-18T18:42:22.804Z,8.27
2023-04-18T18:44:50.561Z,8.25
2023-04-18T18:47:18.634Z,8.63
2023-04-18T18:49:48.809Z,8.02
2023-04-18T18:52:16.869Z,7.97
2023-04-18T18:54:44.653Z,8.45
2023-04-18T18:57:12.396Z,8.18
2023-04-18T18:59:41.491Z,7.70
2023-04-18T19:02:09.424Z,8.60
2023-04-18T19:04:37.384Z,8.38
2023-04-18T19:07:07.289Z,8.55
2023-04-18T19:09:36.733Z,8.15
2023-04-18T19:12:04.695Z,8.20
2023-04-18T19:14:32.457Z,8.02
2023-04-18T19:17:00.305Z,8.05
2023-04-18T19:19:28.047Z,7.85
2023-04-18T19:21:55.839Z,8.95
2023-04-18T19:24:25.011Z,7.15
2023-04-18T19:26:52.804Z,8.15
2023-04-18T19:29:20.629Z,7.13
2023-04-18T19:31:48.550Z,7.72
2023-04-18T19:34:18.788Z,7.22
2023-04-18T19:36:46.605Z,7.75
2023-04-18T19:39:14.544Z,7.50
2023-04-18T19:41:43.733Z,8.13
2023-04-18T19:44:11.506Z,7.68
2023-04-18T19:46:39.363Z,7.25
2023-04-18T19:49:07.201Z,7.82
2023-04-18T19:51:34.933Z,7.32
2023-04-18T19:54:02.698Z,7.30
2023-04-18T19:56:30.397Z,7.45
2023-04-18T19:58:59.533Z,7.28
2023-04-18T20:01:27.342Z,8.05
2023-04-18T20:03:58.482Z,6.90
2023-04-18T20:06:27.221Z,7.07
2023-04-18T20:08:55.191Z,6.80
2023-04-18T20:11:23.249Z,7.25
2023-04-18T20:13:52.226Z,7.50
2023-04-18T20:16:22.116Z,6.45
2023-04-18T20:18:50.252Z,7.32
2023-04-18T20:21:17.976Z,7.40
2023-04-18T20:23:45.731Z,7.88
2023-04-18T20:26:13.432Z,7.40
2023-04-18T20:28:41.209Z,7.13
2023-04-18T20:31:08.963Z,7.32
2023-04-18T20:33:38.299Z,7.32
2023-04-18T20:36:06.545Z,6.40
2023-04-18T20:38:34.668Z,6.82
2023-04-18T20:41:02.624Z,7.78
2023-04-18T20:43:30.628Z,7.07
2023-04-18T20:45:58.819Z,6.90
2023-04-18T20:48:26.596Z,6.82
2023-04-18T20:50:55.755Z,7.32
2023-04-18T20:53:26.015Z,6.22
2023-04-18T20:55:53.952Z,7.18
2023-04-18T20:58:21.745Z,6.72
2023-04-18T21:00:49.562Z,6.30
2023-04-18T21:03:17.839Z,7.57
2023-04-18T21:05:46.149Z,6.57
2023-04-18T21:08:15.536Z,6.72
2023-04-18T21:10:43.265Z,6.95
2023-04-18T21:13:12.482Z,6.75
2023-04-18T21:15:41.759Z,6.60
2023-04-18T21:18:09.609Z,5.93
2023-04-18T21:20:37.454Z,6.68
2023-04-18T21:23:05.285Z,7.13
2023-04-18T21:25:34.387Z,6.80
2023-04-18T21:28:02.363Z,6.43
2023-04-18T21:30:30.701Z,6.40
2023-04-18T21:32:58.471Z,6.22
2023-04-18T21:35:26.418Z,5.47
2023-04-18T21:37:54.135Z,6.07
2023-04-18T21:40:22.031Z,7.45
2023-04-18T21:42:51.871Z,6.82
2023-04-18T21:45:19.942Z,6.57
2023-04-18T21:47:47.702Z,6.35
2023-04-18T21:50:15.604Z,5.75
2023-04-18T21:52:43.372Z,5.90
2023-04-18T21:55:11.340Z,5.55
2023-04-18T21:57:39.039Z,6.13
2023-04-18T22:00:10.659Z,5.97
2023-04-18T22:02:38.672Z,5.47
2023-04-18T22:05:07.582Z,5.97
2023-04-18T22:07:40.810Z,7.40
2023-04-18T22:10:14.268Z,5.80
2023-04-18T22:12:42.438Z,6.97
2023-04-18T22:15:12.529Z,5.90
2023-04-18T22:17:41.395Z,5.35
2023-04-18T22:20:11.187Z,5.60
2023-04-18T22:22:39.072Z,5.65
2023-04-18T22:25:11.282Z,5.93
2023-04-18T22:27:39.601Z,6.00
2023-04-18T22:30:08.544Z,5.30
2023-04-18T22:32:39.037Z,6.20
2023-04-18T22:35:08.199Z,5.97
2023-04-18T22:37:35.933Z,5.57
2023-04-18T22:40:05.044Z,5.57
2023-04-18T22:42:33.826Z,5.75
2023-04-18T22:45:01.922Z,5.53
2023-04-18T22:47:29.763Z,5.60
2023-04-18T22:49:58.847Z,6.30
2023-04-18T22:52:26.939Z,5.88
2023-04-18T22:54:54.940Z,6.22
2023-04-18T22:57:22.818Z,5.53
2023-04-18T22:59:50.698Z,5.93
2023-04-18T23:02:18.486Z,7.30
2023-04-18T23:04:46.427Z,5.32
2023-04-18T23:07:15.642Z,6.43
2023-04-18T23:09:43.460Z,5.47
2023-04-18T23:12:11.256Z,5.85
2023-04-18T23:14:38.970Z,5.35
2023-04-18T23:17:06.752Z,6.30
2023-04-18T23:19:34.514Z,5.80
2023-04-18T23:22:02.277Z,5.93
2023-04-18T23:24:32.124Z,6.18
2023-04-18T23:26:59.804Z,5.82
2023-04-18T23:29:27.849Z,6.25
2023-04-18T23:31:55.651Z,6.07
2023-04-18T23:34:23.572Z,6.15
2023-04-18T23:36:51.307Z,5.68
2023-04-18T23:39:19.264Z,6.07
2023-04-18T23:41:48.413Z,5.88
2023-04-18T23:44:16.193Z,6.30
2023-04-18T23:46:44.102Z,5.95
2023-04-18T23:49:11.848Z,6.03
2023-04-18T23:51:39.579Z,5.35
2023-04-18T23:54:07.545Z,6.53
2023-04-18T23:56:35.626Z,6.22
2023-04-18T23:59:04.693Z,6.05
